createdAt,value
2023-01-25T00:00:45.175Z,34.80
2023-01-25T00:03:11.849Z,34.80
2023-01-25T00:05:38.964Z,34.80
2023-01-25T00:08:06.055Z,34.80
2023-01-25T00:10:32.635Z,34.80
2023-01-25T00:12:59.325Z,34.80
2023-01-25T00:15:25.962Z,34.80
2023-01-25T00:17:52.544Z,34.70
2023-01-25T00:20:19.284Z,34.70
2023-01-25T00:22:45.863Z,34.80
2023-01-25T00:25:12.498Z,34.70
2023-01-25T00:27:39.147Z,34.70
2023-01-25T00:30:06.381Z,34.70
2023-01-25T00:32:42.441Z,34.70
2023-01-25T00:35:12.347Z,34.80
2023-01-25T00:37:51.619Z,34.70
2023-01-25T00:40:18.460Z,34.70
2023-01-25T00:42:45.083Z,34.80
2023-01-25T00:45:13.429Z,34.70
2023-01-25T00:47:40.395Z,34.70
2023-01-25T00:50:08.277Z,34.70
2023-01-25T00:52:35.004Z,34.70
2023-01-25T00:55:01.748Z,34.70
2023-01-25T00:57:28.416Z,34.70
2023-01-25T00:59:55.381Z,34.70
2023-01-25T01:02:22.156Z,34.70
2023-01-25T01:04:48.860Z,34.70
2023-01-25T01:07:15.748Z,34.70
2023-01-25T01:09:42.481Z,34.70
2023-01-25T01:12:09.221Z,34.70
2023-01-25T01:14:36.048Z,34.70
2023-01-25T01:17:02.730Z,34.70
2023-01-25T01:19:29.408Z,34.70
2023-01-25T01:21:56.161Z,34.70
2023-01-25T01:24:22.956Z,34.70
2023-01-25T01:26:49.616Z,34.70
2023-01-25T01:29:16.297Z,34.70
2023-01-25T01:31:43.169Z,34.70
2023-01-25T01:34:14.150Z,34.70
2023-01-25T01:36:40.901Z,34.70
2023-01-25T01:39:07.644Z,34.70
2023-01-25T01:41:34.733Z,34.60
2023-01-25T01:44:01.413Z,34.70
2023-01-25T01:46:38.714Z,34.70
2023-01-25T01:49:30.466Z,34.70
2023-01-25T01:52:01.493Z,34.60
2023-01-25T01:54:30.237Z,34.70
2023-01-25T01:57:29.963Z,34.60
2023-01-25T02:00:11.987Z,34.70
2023-01-25T02:02:38.823Z,34.60
2023-01-25T02:05:09.218Z,34.70
2023-01-25T02:07:38.474Z,34.70
2023-01-25T02:10:08.360Z,34.60
2023-01-25T02:12:36.653Z,34.60
2023-01-25T02:15:03.963Z,34.60
2023-01-25T02:17:35.668Z,34.60
2023-01-25T02:20:17.383Z,34.60
2023-01-25T02:22:58.947Z,34.60
2023-01-25T02:25:26.177Z,34.60
2023-01-25T02:27:57.394Z,34.60
2023-01-25T02:30:24.045Z,34.60
2023-01-25T02:32:50.755Z,34.60
2023-01-25T02:35:36.805Z,34.60
2023-01-25T02:38:04.265Z,34.60
2023-01-25T02:40:34.928Z,34.60
2023-01-25T02:43:01.591Z,34.60
2023-01-25T02:45:30.028Z,34.60
2023-01-25T02:47:56.753Z,34.50
2023-01-25T02:50:23.353Z,34.60
2023-01-25T02:52:50.025Z,34.60
2023-01-25T02:55:16.673Z,34.50
2023-01-25T02:57:43.262Z,34.50
2023-01-25T03:00:10.643Z,34.50
2023-01-25T03:02:37.357Z,34.50
2023-01-25T03:05:04.281Z,34.40
2023-01-25T03:07:30.897Z,34.50
2023-01-25T03:09:57.507Z,34.50
2023-01-25T03:12:24.134Z,34.50
2023-01-25T03:14:50.714Z,34.40
2023-01-25T03:17:17.302Z,34.50
2023-01-25T03:19:44.072Z,34.50
2023-01-25T03:22:11.058Z,34.40
2023-01-25T03:24:37.628Z,34.40
2023-01-25T03:27:18.348Z,34.50
2023-01-25T03:29:45.829Z,34.50
2023-01-25T03:32:12.548Z,34.40
2023-01-25T03:34:39.186Z,34.40
2023-01-25T03:37:05.771Z,34.50
2023-01-25T03:39:32.364Z,34.40
2023-01-25T03:41:58.975Z,34.40
2023-01-25T03:44:25.583Z,34.50
2023-01-25T03:46:52.245Z,34.40
2023-01-25T03:49:23.649Z,34.40
2023-01-25T03:51:50.243Z,34.40
2023-01-25T03:54:16.865Z,34.40
2023-01-25T03:56:43.542Z,34.40
2023-01-25T03:59:11.392Z,34.40
2023-01-25T04:01:38.326Z,34.50
2023-01-25T04:04:05.028Z,34.40
2023-01-25T04:06:31.620Z,34.40
2023-01-25T04:08:58.196Z,34.40
2023-01-25T04:11:24.799Z,34.30
2023-01-25T04:13:51.364Z,34.30
2023-01-25T04:16:18.061Z,34.40
2023-01-25T04:18:44.666Z,34.40
2023-01-25T04:21:11.259Z,34.40
2023-01-25T04:23:37.834Z,34.40
2023-01-25T04:26:07.249Z,34.40
2023-01-25T04:28:34.977Z,34.40
2023-01-25T04:31:03.453Z,34.40
2023-01-25T04:33:30.448Z,34.50
2023-01-25T04:35:57.334Z,34.40
2023-01-25T04:38:24.234Z,34.50
2023-01-25T04:40:51.867Z,34.50
2023-01-25T04:43:20.180Z,34.50
2023-01-25T04:45:47.107Z,34.50
2023-01-25T04:48:14.372Z,34.50
2023-01-25T04:50:43.005Z,34.50
2023-01-25T04:53:11.051Z,34.50
2023-01-25T04:55:37.889Z,34.50
2023-01-25T04:58:05.153Z,34.50
2023-01-25T05:00:32.479Z,34.50
2023-01-25T05:02:59.284Z,34.50
2023-01-25T05:05:26.185Z,34.50
2023-01-25T05:07:52.839Z,34.60
2023-01-25T05:10:19.548Z,34.60
2023-01-25T05:12:46.139Z,34.60
2023-01-25T05:15:12.905Z,34.70
2023-01-25T05:17:39.584Z,34.70
2023-01-25T05:20:06.538Z,34.70
2023-01-25T05:22:33.189Z,34.70
2023-01-25T05:25:01.766Z,34.70
2023-01-25T05:27:28.458Z,34.60
2023-01-25T05:29:55.859Z,34.60
2023-01-25T05:32:23.564Z,34.70
2023-01-25T05:34:50.415Z,34.70
2023-01-25T05:37:19.063Z,34.70
2023-01-25T05:39:45.772Z,34.70
2023-01-25T05:42:17.923Z,34.70
2023-01-25T05:44:47.382Z,34.70
2023-01-25T05:47:16.773Z,34.80
2023-01-25T05:49:43.710Z,35.00
2023-01-25T05:52:17.516Z,35.00
2023-01-25T05:54:44.669Z,35.00
2023-01-25T05:57:13.313Z,35.00
2023-01-25T05:59:39.900Z,34.90
2023-01-25T06:02:06.584Z,34.80
2023-01-25T06:04:33.206Z,34.90
2023-01-25T06:06:59.806Z,34.90
2023-01-25T06:09:27.017Z,34.90
2023-01-25T06:11:53.658Z,34.90
2023-01-25T06:14:20.422Z,34.80
2023-01-25T06:16:46.993Z,34.70
2023-01-25T06:19:14.077Z,34.80
2023-01-25T06:21:40.846Z,34.70
2023-01-25T06:24:07.944Z,34.70
2023-01-25T06:26:34.619Z,34.70
2023-01-25T06:29:01.310Z,34.70
2023-01-25T06:31:27.996Z,34.70
2023-01-25T06:33:54.773Z,34.60
2023-01-25T06:36:22.576Z,34.70
2023-01-25T06:38:50.774Z,34.60
2023-01-25T06:41:18.296Z,34.60
2023-01-25T06:43:45.663Z,34.60
2023-01-25T06:46:12.601Z,34.50
2023-01-25T06:48:39.914Z,34.40
2023-01-25T06:51:09.239Z,34.40
2023-01-25T06:53:39.565Z,34.40
2023-01-25T06:56:10.933Z,34.30
2023-01-25T06:58:39.071Z,34.10
2023-01-25T07:01:27.474Z,33.90
2023-01-25T07:03:56.875Z,33.90
2023-01-25T07:06:25.080Z,33.90
2023-01-25T07:08:51.911Z,34.00
2023-01-25T07:11:19.074Z,33.90
2023-01-25T07:13:47.459Z,33.90
2023-01-25T07:16:17.062Z,33.90
2023-01-25T07:18:43.701Z,33.90
2023-01-25T07:21:16.106Z,33.90
2023-01-25T07:23:43.334Z,33.90
2023-01-25T07:26:16.959Z,34.00
2023-01-25T07:28:43.979Z,33.90
2023-01-25T07:31:10.585Z,33.90
2023-01-25T07:33:37.267Z,33.90
2023-01-25T07:36:06.339Z,33.80
2023-01-25T07:38:33.766Z,33.80
2023-01-25T07:41:00.566Z,33.80
2023-01-25T07:43:27.904Z,33.90
2023-01-25T07:45:59.775Z,33.80
2023-01-25T07:48:26.357Z,34.50
2023-01-25T07:51:11.606Z,33.80
2023-01-25T07:53:42.482Z,34.00
2023-01-25T07:56:10.911Z,34.10
2023-01-25T07:58:37.798Z,34.00
2023-01-25T08:01:18.884Z,34.70
2023-01-25T08:03:47.112Z,34.10
2023-01-25T08:06:14.323Z,34.10
2023-01-25T08:08:44.179Z,34.20
2023-01-25T08:11:17.183Z,34.10
2023-01-25T08:13:46.195Z,34.10
2023-01-25T08:16:14.261Z,34.10
2023-01-25T08:18:41.030Z,34.00
2023-01-25T08:21:07.929Z,34.20
2023-01-25T08:23:34.893Z,34.10
2023-01-25T08:26:08.040Z,34.00
2023-01-25T08:28:35.694Z,33.90
2023-01-25T08:31:24.307Z,33.70
2023-01-25T08:33:52.038Z,33.50
2023-01-25T08:36:20.071Z,33.50
2023-01-25T08:38:47.925Z,33.50
2023-01-25T08:41:19.633Z,33.60
2023-01-25T08:43:47.304Z,33.60
2023-01-25T08:46:15.655Z,33.70
2023-01-25T08:48:42.450Z,33.70
2023-01-25T08:51:12.325Z,33.70
2023-01-25T08:53:39.148Z,33.60
2023-01-25T08:56:16.269Z,33.40
2023-01-25T08:58:48.311Z,33.20
2023-01-25T09:01:17.641Z,33.20
2023-01-25T09:03:47.682Z,33.10
2023-01-25T09:06:14.672Z,33.40
2023-01-25T09:08:41.346Z,33.20
2023-01-25T09:11:19.569Z,33.30
2023-01-25T09:13:46.427Z,33.30
2023-01-25T09:16:15.635Z,33.40
2023-01-25T09:18:43.802Z,33.40
2023-01-25T09:21:16.252Z,33.30
2023-01-25T09:24:05.355Z,33.30
2023-01-25T09:26:33.395Z,33.30
2023-01-25T09:29:00.180Z,33.30
2023-01-25T09:31:29.837Z,33.20
2023-01-25T09:33:58.082Z,33.20
2023-01-25T09:36:24.959Z,33.20
2023-01-25T09:38:51.608Z,33.10
2023-01-25T09:41:27.393Z,33.10
2023-01-25T09:44:15.611Z,33.00
2023-01-25T09:46:49.117Z,32.90
2023-01-25T09:49:37.712Z,32.90
2023-01-25T09:52:32.064Z,32.90
2023-01-25T09:54:59.060Z,32.90
2023-01-25T09:57:28.390Z,32.90
2023-01-25T09:59:56.527Z,33.00
2023-01-25T10:02:29.267Z,33.10
2023-01-25T10:05:01.502Z,33.10
2023-01-25T10:07:36.463Z,33.20
2023-01-25T10:10:07.336Z,33.10
2023-01-25T10:12:37.766Z,33.20
2023-01-25T10:15:28.844Z,33.20
2023-01-25T10:18:19.519Z,33.10
2023-01-25T10:20:53.806Z,33.10
2023-01-25T10:24:00.765Z,33.10
2023-01-25T10:26:31.114Z,33.10
2023-01-25T10:29:00.541Z,33.10
2023-01-25T10:31:40.263Z,33.00
2023-01-25T10:34:20.890Z,33.00
2023-01-25T10:37:01.144Z,33.00
2023-01-25T10:39:30.101Z,33.00
2023-01-25T10:42:01.159Z,33.00
2023-01-25T10:44:29.085Z,33.10
2023-01-25T10:47:04.430Z,33.50
2023-01-25T10:49:47.945Z,33.40
2023-01-25T10:52:22.517Z,33.40
2023-01-25T10:55:07.192Z,33.40
2023-01-25T10:57:35.686Z,33.40
2023-01-25T11:00:12.927Z,33.50
2023-01-25T11:02:45.127Z,33.50
2023-01-25T11:05:28.805Z,33.60
2023-01-25T11:07:56.863Z,33.50
2023-01-25T11:10:37.785Z,33.50
2023-01-25T11:13:16.816Z,33.30
2023-01-25T11:16:22.383Z,33.10
2023-01-25T11:18:54.776Z,33.00
2023-01-25T11:21:25.527Z,33.00
2023-01-25T11:24:01.321Z,32.90
2023-01-25T11:26:28.407Z,33.00
2023-01-25T11:29:18.856Z,33.60
2023-01-25T11:31:50.082Z,32.80
2023-01-25T11:34:19.534Z,32.90
2023-01-25T11:37:03.914Z,32.80
2023-01-25T11:39:30.530Z,32.70
2023-01-25T11:42:02.619Z,32.80
2023-01-25T11:44:48.441Z,32.70
2023-01-25T11:47:36.776Z,32.70
2023-01-25T11:50:20.851Z,32.70
2023-01-25T11:53:14.540Z,32.70
2023-01-25T11:56:06.297Z,32.60
2023-01-25T11:58:58.178Z,32.50
2023-01-25T12:01:34.721Z,32.50
2023-01-25T12:04:39.191Z,32.60
2023-01-25T12:07:34.205Z,32.50
2023-01-25T12:10:03.922Z,32.60
2023-01-25T12:12:41.247Z,32.60
2023-01-25T12:15:16.902Z,32.50
2023-01-25T12:18:02.064Z,32.50
2023-01-25T12:20:46.859Z,32.50
2023-01-25T12:23:36.895Z,32.50
2023-01-25T12:26:27.203Z,32.50
2023-01-25T12:29:35.091Z,32.50
2023-01-25T12:32:10.416Z,32.50
2023-01-25T12:34:40.592Z,32.40
2023-01-25T12:37:21.779Z,32.50
2023-01-25T12:39:58.494Z,32.40
2023-01-25T12:42:33.400Z,32.40
2023-01-25T12:45:25.233Z,32.40
2023-01-25T12:47:51.844Z,32.50
2023-01-25T12:50:56.647Z,32.60
2023-01-25T12:53:37.425Z,32.50
2023-01-25T12:56:10.864Z,32.50
2023-01-25T12:58:52.253Z,32.50
2023-01-25T13:01:34.465Z,32.40
2023-01-25T13:04:58.865Z,32.50
2023-01-25T13:07:37.772Z,32.50
2023-01-25T13:10:25.815Z,32.40
2023-01-25T13:12:55.342Z,32.50
2023-01-25T13:15:48.143Z,32.50
2023-01-25T13:18:33.587Z,32.50
2023-01-25T13:21:05.467Z,32.60
2023-01-25T13:23:50.640Z,32.60
2023-01-25T13:26:26.198Z,32.60
2023-01-25T13:28:55.173Z,32.60
2023-01-25T13:31:53.343Z,32.70
2023-01-25T13:34:35.758Z,32.60
2023-01-25T13:37:31.066Z,32.60
2023-01-25T13:40:09.892Z,32.60
2023-01-25T13:42:39.053Z,32.70
2023-01-25T13:45:18.718Z,32.70
2023-01-25T13:48:01.043Z,32.70
2023-01-25T13:50:32.561Z,32.70
2023-01-25T13:53:01.714Z,32.70
2023-01-25T13:55:29.895Z,32.60
2023-01-25T13:58:20.192Z,32.60
2023-01-25T14:01:08.487Z,32.50
2023-01-25T14:03:41.342Z,32.60
2023-01-25T14:06:24.838Z,32.60
2023-01-25T14:08:53.158Z,32.50
2023-01-25T14:11:25.599Z,32.50
2023-01-25T14:14:21.531Z,32.50
2023-01-25T14:17:04.157Z,32.50
2023-01-25T14:19:31.711Z,32.40
2023-01-25T14:22:13.394Z,32.40
2023-01-25T14:24:40.556Z,32.40
2023-01-25T14:27:11.752Z,32.40
2023-01-25T14:32:06.483Z,32.40
2023-01-25T14:34:33.207Z,32.40
2023-01-25T14:37:26.064Z,32.40
2023-01-25T14:39:52.882Z,32.40
2023-01-25T14:42:19.909Z,32.40
2023-01-25T14:44:46.940Z,32.30
2023-01-25T14:47:31.073Z,32.30
2023-01-25T14:50:36.083Z,32.20
2023-01-25T14:53:14.191Z,32.40
2023-01-25T14:55:45.073Z,32.20
2023-01-25T14:58:18.637Z,32.20
2023-01-25T15:00:55.904Z,32.20
2023-01-25T15:03:23.081Z,32.20
2023-01-25T15:05:49.758Z,32.20
2023-01-25T15:08:28.960Z,32.20
2023-01-25T15:10:57.396Z,32.10
2023-01-25T15:13:26.362Z,32.20
2023-01-25T15:16:01.656Z,32.20
2023-01-25T15:18:48.596Z,32.10
2023-01-25T15:21:29.743Z,32.10
2023-01-25T15:23:58.270Z,32.00
2023-01-25T15:26:30.139Z,32.10
2023-01-25T15:29:21.226Z,32.00
2023-01-25T15:31:50.105Z,32.00
2023-01-25T15:34:24.085Z,32.00
2023-01-25T15:36:50.825Z,32.00
2023-01-25T15:39:19.547Z,31.90
2023-01-25T15:41:46.871Z,32.40
2023-01-25T15:44:13.916Z,31.60
2023-01-25T15:46:44.747Z,31.50
2023-01-25T15:49:27.654Z,31.50
2023-01-25T15:51:55.351Z,31.40
2023-01-25T15:54:22.164Z,31.50
2023-01-25T15:56:54.604Z,32.30
2023-01-25T15:59:21.298Z,31.60
2023-01-25T16:01:47.928Z,31.40
2023-01-25T16:04:14.788Z,31.30
2023-01-25T16:06:46.017Z,31.30
2023-01-25T16:09:17.232Z,31.20
2023-01-25T16:11:44.664Z,31.30
2023-01-25T16:14:11.640Z,31.30
2023-01-25T16:16:44.070Z,31.40
2023-01-25T16:19:14.058Z,31.30
2023-01-25T16:21:41.589Z,31.40
2023-01-25T16:24:09.762Z,31.50
2023-01-25T16:26:39.921Z,31.50
2023-01-25T16:29:06.833Z,31.50
2023-01-25T16:31:33.740Z,31.60
2023-01-25T16:34:01.472Z,31.60
2023-01-25T16:36:29.278Z,31.60
2023-01-25T16:38:55.903Z,31.60
2023-01-25T16:41:22.541Z,31.60
2023-01-25T16:43:49.598Z,31.60
2023-01-25T16:46:18.962Z,31.70
2023-01-25T16:48:47.172Z,31.60
2023-01-25T16:51:22.582Z,31.60
2023-01-25T16:53:51.013Z,31.50
2023-01-25T16:56:22.918Z,31.50
2023-01-25T16:58:50.922Z,31.50
2023-01-25T17:01:19.515Z,31.50
2023-01-25T17:03:47.024Z,31.60
2023-01-25T17:06:20.127Z,31.60
2023-01-25T17:08:47.996Z,31.70
2023-01-25T17:11:15.183Z,32.50
2023-01-25T17:13:41.772Z,31.80
2023-01-25T17:16:08.706Z,31.80
2023-01-25T17:18:35.454Z,31.80
2023-01-25T17:21:04.739Z,31.90
2023-01-25T17:23:36.308Z,31.90
2023-01-25T17:26:05.086Z,31.90
2023-01-25T17:28:32.187Z,31.90
2023-01-25T17:30:58.939Z,32.00
2023-01-25T17:33:26.141Z,32.00
2023-01-25T17:35:58.146Z,32.00
2023-01-25T17:38:28.238Z,32.00
2023-01-25T17:40:55.274Z,32.10
2023-01-25T17:43:21.886Z,32.00
2023-01-25T17:45:48.502Z,32.10
2023-01-25T17:48:15.153Z,32.10
2023-01-25T17:50:41.804Z,32.60
2023-01-25T17:53:08.460Z,32.10
2023-01-25T17:55:37.145Z,32.20
2023-01-25T17:58:04.432Z,32.10
2023-01-25T18:00:31.485Z,32.10
2023-01-25T18:02:58.480Z,32.10
2023-01-25T18:05:27.857Z,32.10
2023-01-25T18:07:54.481Z,32.00
2023-01-25T18:10:21.143Z,32.00
2023-01-25T18:13:03.665Z,32.00
2023-01-25T18:15:31.201Z,32.10
2023-01-25T18:17:58.050Z,32.00
2023-01-25T18:20:24.681Z,32.00
2023-01-25T18:22:51.393Z,32.00
2023-01-25T18:25:32.187Z,32.00
2023-01-25T18:27:59.758Z,32.00
2023-01-25T18:30:29.305Z,32.00
2023-01-25T18:32:56.889Z,32.00
2023-01-25T18:35:25.071Z,31.90
2023-01-25T18:37:51.974Z,32.00
2023-01-25T18:40:19.805Z,31.90
2023-01-25T18:42:46.448Z,31.90
2023-01-25T18:45:13.437Z,31.90
2023-01-25T18:47:40.127Z,31.90
2023-01-25T18:50:08.158Z,31.80
2023-01-25T18:52:35.692Z,31.80
2023-01-25T18:55:02.658Z,31.90
2023-01-25T18:57:29.291Z,31.90
2023-01-25T18:59:56.712Z,31.90
2023-01-25T19:02:24.935Z,31.80
2023-01-25T19:04:51.525Z,31.80
2023-01-25T19:07:18.132Z,31.80
2023-01-25T19:09:44.829Z,31.70
2023-01-25T19:12:11.734Z,31.70
2023-01-25T19:14:38.409Z,31.70
2023-01-25T19:17:05.023Z,31.60
2023-01-25T19:19:33.654Z,31.70
2023-01-25T19:22:01.034Z,31.70
2023-01-25T19:24:27.899Z,31.60
2023-01-25T19:26:54.805Z,31.70
2023-01-25T19:29:21.644Z,31.60
2023-01-25T19:31:48.421Z,31.60
2023-01-25T19:34:15.198Z,31.70
2023-01-25T19:36:47.338Z,31.70
2023-01-25T19:39:14.491Z,31.70
2023-01-25T19:41:41.129Z,31.70
2023-01-25T19:44:11.346Z,31.70
2023-01-25T19:46:38.114Z,31.80
2023-01-25T19:49:08.014Z,31.80
2023-01-25T19:51:38.367Z,31.80
2023-01-25T19:54:06.414Z,31.90
2023-01-25T19:56:41.518Z,31.90
2023-01-25T19:59:13.736Z,31.90
2023-01-25T20:01:44.109Z,31.90
2023-01-25T20:04:12.363Z,32.00
2023-01-25T20:06:38.984Z,32.00
2023-01-25T20:09:05.658Z,32.10
2023-01-25T20:11:33.264Z,32.00
2023-01-25T20:14:02.624Z,32.00
2023-01-25T20:16:32.454Z,32.10
2023-01-25T20:18:59.631Z,32.00
2023-01-25T20:21:28.594Z,32.10
2023-01-25T20:23:58.387Z,32.00
2023-01-25T20:26:32.187Z,32.20
2023-01-25T20:28:59.899Z,32.10
2023-01-25T20:31:29.225Z,32.20
2023-01-25T20:33:59.075Z,32.20
2023-01-25T20:36:28.118Z,32.20
2023-01-25T20:38:55.275Z,32.20
2023-01-25T20:41:22.222Z,32.20
2023-01-25T20:43:51.244Z,32.30
2023-01-25T20:46:19.563Z,32.40
2023-01-25T20:48:46.993Z,32.10
2023-01-25T20:51:16.926Z,32.30
2023-01-25T20:53:45.109Z,32.30
2023-01-25T20:56:13.445Z,32.40
2023-01-25T20:58:40.221Z,32.40
2023-01-25T21:01:15.018Z,32.40
2023-01-25T21:03:43.012Z,32.50
2023-01-25T21:06:09.962Z,32.40
2023-01-25T21:08:36.830Z,32.50
2023-01-25T21:11:03.771Z,32.50
2023-01-25T21:13:30.764Z,32.50
2023-01-25T21:16:05.597Z,32.50
2023-01-25T21:18:35.180Z,32.50
2023-01-25T21:21:08.357Z,32.50
2023-01-25T21:23:36.418Z,32.50
2023-01-25T21:26:05.643Z,32.50
2023-01-25T21:28:33.573Z,32.50
2023-01-25T21:31:14.075Z,32.50
2023-01-25T21:33:41.094Z,32.50
2023-01-25T21:36:08.654Z,32.50
2023-01-25T21:38:35.935Z,32.50
2023-01-25T21:41:04.103Z,32.50
2023-01-25T21:43:50.677Z,32.60
2023-01-25T21:46:25.286Z,32.50
2023-01-25T21:49:18.356Z,32.50
2023-01-25T21:51:49.310Z,32.50
2023-01-25T21:54:24.708Z,32.50
2023-01-25T21:56:53.499Z,32.60
2023-01-25T21:59:20.497Z,32.50
2023-01-25T22:01:47.791Z,32.50
2023-01-25T22:04:16.241Z,32.50
2023-01-25T22:06:43.288Z,32.50
2023-01-25T22:09:10.760Z,32.50
2023-01-25T22:11:37.452Z,32.60
2023-01-25T22:14:04.050Z,32.60
2023-01-25T22:16:31.188Z,32.60
2023-01-25T22:18:59.968Z,32.50
2023-01-25T22:21:30.726Z,32.60
2023-01-25T22:23:58.137Z,32.60
2023-01-25T22:26:27.041Z,32.50
2023-01-25T22:28:56.320Z,32.60
2023-01-25T22:31:28.466Z,32.60
2023-01-25T22:33:56.393Z,33.30
2023-01-25T22:36:25.074Z,32.50
2023-01-25T22:38:52.271Z,32.50
2023-01-25T22:41:22.108Z,32.50
2023-01-25T22:43:48.867Z,32.60
2023-01-25T22:46:18.111Z,32.60
2023-01-25T22:48:45.998Z,32.60
2023-01-25T22:51:17.102Z,32.60
2023-01-25T22:53:44.199Z,32.50
2023-01-25T22:56:20.710Z,32.50
2023-01-25T22:58:48.273Z,32.50
2023-01-25T23:01:17.586Z,32.50
2023-01-25T23:03:44.549Z,32.50
2023-01-25T23:06:26.029Z,33.20
2023-01-25T23:08:59.617Z,32.50
2023-01-25T23:11:32.059Z,32.50
2023-01-25T23:14:18.274Z,32.50
2023-01-25T23:16:44.932Z,32.50
2023-01-25T23:19:11.718Z,32.50
2023-01-25T23:21:38.852Z,32.50
2023-01-25T23:24:06.013Z,32.50
2023-01-25T23:26:37.782Z,32.50
2023-01-25T23:29:10.592Z,32.50
2023-01-25T23:31:37.562Z,33.20
2023-01-25T23:34:06.379Z,32.50
2023-01-25T23:36:35.281Z,32.50
2023-01-25T23:39:02.640Z,32.50
2023-01-25T23:41:30.212Z,32.50
2023-01-25T23:43:57.706Z,32.50
2023-01-25T23:46:24.932Z,32.50
2023-01-25T23:48:51.965Z,32.50
2023-01-25T23:51:19.600Z,32.50
2023-01-25T23:53:46.214Z,32.50
2023-01-25T23:56:18.707Z,32.60
2023-01-25T23:58:46.703Z,32.50
